sensor_id;sensor_type;location;lat;lon;timestamp;temperature;humidity
48946;DHT22;34999;50.940;3.998;2024-03-23T00:54:56;6.70;99.90
48946;DHT22;34999;50.940;3.998;2024-03-23T00:57:22;6.70;99.90
48946;DHT22;34999;50.940;3.998;2024-03-23T00:59:49;6.70;99.90
48946;DHT22;34999;50.940;3.998;2024-03-23T01:02:16;6.60;99.90
48946;DHT22;34999;50.940;3.998;2024-03-23T01:04:43;6.60;99.90
48946;DHT22;34999;50.940;3.998;2024-03-23T01:07:10;6.60;99.90
48946;DHT22;34999;50.940;3.998;2024-03-23T01:09:37;6.50;99.90
48946;DHT22;34999;50.940;3.998;2024-03-23T01:12:06;6.60;99.90
48946;DHT22;34999;50.940;3.998;2024-03-23T01:14:34;6.60;99.90
48946;DHT22;34999;50.940;3.998;2024-03-23T01:17:01;6.60;99.90
48946;DHT22;34999;50.940;3.998;2024-03-23T01:19:31;6.70;99.90
48946;DHT22;34999;50.940;3.998;2024-03-23T01:21:57;6.70;99.90
48946;DHT22;34999;50.940;3.998;2024-03-23T01:24:25;6.70;99.90
48946;DHT22;34999;50.940;3.998;2024-03-23T01:26:51;6.80;99.90
48946;DHT22;34999;50.940;3.998;2024-03-23T01:29:20;6.80;99.90
48946;DHT22;34999;50.940;3.998;2024-03-23T01:31:47;6.80;99.90
48946;DHT22;34999;50.940;3.998;2024-03-23T01:34:14;6.90;99.90
48946;DHT22;34999;50.940;3.998;2024-03-23T01:36:40;6.90;99.90
48946;DHT22;34999;50.940;3.998;2024-03-23T01:39:08;6.90;99.90
48946;DHT22;34999;50.940;3.998;2024-03-23T01:41:35;6.90;99.90
48946;DHT22;34999;50.940;3.998;2024-03-23T01:44:05;7.00;99.90
48946;DHT22;34999;50.940;3.998;2024-03-23T01:46:33;7.00;99.90
48946;DHT22;34999;50.940;3.998;2024-03-23T01:49:00;7.00;99.90
48946;DHT22;34999;50.940;3.998;2024-03-23T01:51:28;7.00;99.90
48946;DHT22;34999;50.940;3.998;2024-03-23T01:53:56;7.00;99.90
48946;DHT22;34999;50.940;3.998;2024-03-23T01:56:23;7.00;99.90
48946;DHT22;34999;50.940;3.998;2024-03-23T01:58:50;7.00;99.90
48946;DHT22;34999;50.940;3.998;2024-03-23T02:01:17;7.00;99.90
48946;DHT22;34999;50.940;3.998;2024-03-23T02:03:46;7.00;99.90
48946;DHT22;34999;50.940;3.998;2024-03-23T02:06:13;7.00;99.90
48946;DHT22;34999;50.940;3.998;2024-03-23T02:08:40;7.00;99.90
48946;DHT22;34999;50.940;3.998;2024-03-23T02:11:06;7.00;99.90
48946;DHT22;34999;50.940;3.998;2024-03-23T02:13:34;6.90;99.90
48946;DHT22;34999;50.940;3.998;2024-03-23T02:16:01;6.90;99.90
48946;DHT22;34999;50.940;3.998;2024-03-23T02:18:28;6.90;99.90
48946;DHT22;34999;50.940;3.998;2024-03-23T02:20:56;6.90;99.90
48946;DHT22;34999;50.940;3.998;2024-03-23T02:23:24;6.80;99.90
48946;DHT22;34999;50.940;3.998;2024-03-23T02:25:51;6.80;99.90
48946;DHT22;34999;50.940;3.998;2024-03-23T02:28:19;6.80;99.90
48946;DHT22;34999;50.940;3.998;2024-03-23T02:30:45;6.80;99.90
48946;DHT22;34999;50.940;3.998;2024-03-23T02:33:13;6.80;99.90
48946;DHT22;34999;50.940;3.998;2024-03-23T02:35:40;6.80;99.90
48946;DHT22;34999;50.940;3.998;2024-03-23T02:38:10;6.80;99.90
48946;DHT22;34999;50.940;3.998;2024-03-23T02:40:37;6.80;99.90
48946;DHT22;34999;50.940;3.998;2024-03-23T02:43:05;6.80;99.90
48946;DHT22;34999;50.940;3.998;2024-03-23T02:45:31;6.80;99.90
48946;DHT22;34999;50.940;3.998;2024-03-23T02:47:58;6.80;99.90
48946;DHT22;34999;50.940;3.998;2024-03-23T02:50:25;6.80;99.90
48946;DHT22;34999;50.940;3.998;2024-03-23T02:52:52;6.80;99.90
48946;DHT22;34999;50.940;3.998;2024-03-23T02:55:19;6.80;99.90
48946;DHT22;34999;50.940;3.998;2024-03-23T02:57:48;6.70;99.90
48946;DHT22;34999;50.940;3.998;2024-03-23T03:00:33;6.70;99.90
48946;DHT22;34999;50.940;3.998;2024-03-23T03:03:02;6.70;99.90
48946;DHT22;34999;50.940;3.998;2024-03-23T03:05:29;6.70;99.90
48946;DHT22;34999;50.940;3.998;2024-03-23T03:07:56;6.60;99.90
48946;DHT22;34999;50.940;3.998;2024-03-23T03:10:23;6.60;99.90
48946;DHT22;34999;50.940;3.998;2024-03-23T03:12:51;6.50;99.90
48946;DHT22;34999;50.940;3.998;2024-03-23T03:15:17;6.50;99.90
48946;DHT22;34999;50.940;3.998;2024-03-23T03:17:45;6.40;99.90
48946;DHT22;34999;50.940;3.998;2024-03-23T03:20:14;6.40;99.90
48946;DHT22;34999;50.940;3.998;2024-03-23T03:22:43;6.40;99.90
48946;DHT22;34999;50.940;3.998;2024-03-23T03:25:10;6.40;99.90
48946;DHT22;34999;50.940;3.998;2024-03-23T03:27:39;6.40;99.90
48946;DHT22;34999;50.940;3.998;2024-03-23T03:30:08;6.40;99.90
48946;DHT22;34999;50.940;3.998;2024-03-23T03:32:36;6.30;99.90
48946;DHT22;34999;50.940;3.998;2024-03-23T03:35:02;6.20;99.90
48946;DHT22;34999;50.940;3.998;2024-03-23T03:37:30;6.10;99.90
48946;DHT22;34999;50.940;3.998;2024-03-23T03:39:57;6.00;99.90
48946;DHT22;34999;50.940;3.998;2024-03-23T03:42:24;6.00;99.90
48946;DHT22;34999;50.940;3.998;2024-03-23T03:44:50;6.00;99.90
48946;DHT22;34999;50.940;3.998;2024-03-23T03:47:21;6.00;99.90
48946;DHT22;34999;50.940;3.998;2024-03-23T03:49:47;6.00;99.90
48946;DHT22;34999;50.940;3.998;2024-03-23T03:52:15;6.00;99.90
48946;DHT22;34999;50.940;3.998;2024-03-23T03:54:41;6.00;99.90
48946;DHT22;34999;50.940;3.998;2024-03-23T03:57:08;6.00;99.90
48946;DHT22;34999;50.940;3.998;2024-03-23T03:59:35;6.00;99.90
48946;DHT22;34999;50.940;3.998;2024-03-23T04:02:03;5.90;99.90
48946;DHT22;34999;50.940;3.998;2024-03-23T04:04:30;5.90;99.90
48946;DHT22;34999;50.940;3.998;2024-03-23T04:07:01;6.00;99.90
48946;DHT22;34999;50.940;3.998;2024-03-23T04:09:28;5.90;99.90
48946;DHT22;34999;50.940;3.998;2024-03-23T04:11:56;6.00;99.90
48946;DHT22;34999;50.940;3.998;2024-03-23T04:14:22;6.00;99.90
48946;DHT22;34999;50.940;3.998;2024-03-23T04:16:49;6.00;99.90
48946;DHT22;34999;50.940;3.998;2024-03-23T04:19:16;6.10;99.90
48946;DHT22;34999;50.940;3.998;2024-03-23T04:21:44;6.10;99.90
48946;DHT22;34999;50.940;3.998;2024-03-23T04:24:11;6.10;99.90
48946;DHT22;34999;50.940;3.998;2024-03-23T04:26:41;6.10;99.90
48946;DHT22;34999;50.940;3.998;2024-03-23T04:29:07;6.00;99.90
48946;DHT22;34999;50.940;3.998;2024-03-23T04:31:35;6.00;99.90
48946;DHT22;34999;50.940;3.998;2024-03-23T04:34:01;6.00;99.90
48946;DHT22;34999;50.940;3.998;2024-03-23T04:36:29;5.90;99.90
48946;DHT22;34999;50.940;3.998;2024-03-23T04:38:58;5.90;99.90
48946;DHT22;34999;50.940;3.998;2024-03-23T04:41:26;5.90;99.90
48946;DHT22;34999;50.940;3.998;2024-03-23T04:43:53;5.90;99.90
48946;DHT22;34999;50.940;3.998;2024-03-23T04:46:21;5.90;99.90
48946;DHT22;34999;50.940;3.998;2024-03-23T04:48:47;5.90;99.90
48946;DHT22;34999;50.940;3.998;2024-03-23T04:51:20;5.90;99.90
48946;DHT22;34999;50.940;3.998;2024-03-23T04:53:47;5.80;99.90
48946;DHT22;34999;50.940;3.998;2024-03-23T04:56:16;5.90;99.90
48946;DHT22;34999;50.940;3.998;2024-03-23T04:58:43;5.90;99.90
48946;DHT22;34999;50.940;3.998;2024-03-23T05:01:11;5.90;99.90
48946;DHT22;34999;50.940;3.998;2024-03-23T05:03:40;5.80;99.90
48946;DHT22;34999;50.940;3.998;2024-03-23T05:06:07;5.80;99.90
48946;DHT22;34999;50.940;3.998;2024-03-23T05:08:34;5.80;99.90
48946;DHT22;34999;50.940;3.998;2024-03-23T05:11:02;5.90;99.90
48946;DHT22;34999;50.940;3.998;2024-03-23T05:13:30;5.90;99.90
48946;DHT22;34999;50.940;3.998;2024-03-23T05:15:57;5.90;99.90
48946;DHT22;34999;50.940;3.998;2024-03-23T05:18:24;5.90;99.90
48946;DHT22;34999;50.940;3.998;2024-03-23T05:20:56;5.80;99.90
48946;DHT22;34999;50.940;3.998;2024-03-23T05:23:23;5.80;99.90
48946;DHT22;34999;50.940;3.998;2024-03-23T05:25:51;5.80;99.90
48946;DHT22;34999;50.940;3.998;2024-03-23T05:28:17;5.90;99.90
48946;DHT22;34999;50.940;3.998;2024-03-23T05:30:51;5.90;99.90
48946;DHT22;34999;50.940;3.998;2024-03-23T05:33:18;5.90;99.90
48946;DHT22;34999;50.940;3.998;2024-03-23T05:35:45;6.00;99.90
48946;DHT22;34999;50.940;3.998;2024-03-23T05:38:12;6.00;99.90
48946;DHT22;34999;50.940;3.998;2024-03-23T05:40:39;6.00;99.90
48946;DHT22;34999;50.940;3.998;2024-03-23T05:43:06;6.00;99.90
48946;DHT22;34999;50.940;3.998;2024-03-23T05:45:36;6.10;99.90
48946;DHT22;34999;50.940;3.998;2024-03-23T05:48:04;6.10;99.90
48946;DHT22;34999;50.940;3.998;2024-03-23T05:50:32;6.00;99.90
48946;DHT22;34999;50.940;3.998;2024-03-23T05:52:58;6.00;99.90
48946;DHT22;34999;50.940;3.998;2024-03-23T05:55:26;6.00;99.90
48946;DHT22;34999;50.940;3.998;2024-03-23T05:57:53;5.90;99.90
48946;DHT22;34999;50.940;3.998;2024-03-23T06:00:20;5.90;99.90
48946;DHT22;34999;50.940;3.998;2024-03-23T06:02:47;5.90;99.90
48946;DHT22;34999;50.940;3.998;2024-03-23T06:05:15;5.90;99.90
48946;DHT22;34999;50.940;3.998;2024-03-23T06:07:42;6.00;99.90
48946;DHT22;34999;50.940;3.998;2024-03-23T06:10:09;6.00;99.90
48946;DHT22;34999;50.940;3.998;2024-03-23T06:12:36;6.10;99.90
48946;DHT22;34999;50.940;3.998;2024-03-23T06:15:04;6.20;99.90
48946;DHT22;34999;50.940;3.998;2024-03-23T06:17:31;6.20;99.90
48946;DHT22;34999;50.940;3.998;2024-03-23T06:19:59;6.30;99.90
48946;DHT22;34999;50.940;3.998;2024-03-23T06:22:27;6.20;99.90
48946;DHT22;34999;50.940;3.998;2024-03-23T06:24:54;6.20;99.90
48946;DHT22;34999;50.940;3.998;2024-03-23T06:27:21;6.40;99.90
48946;DHT22;34999;50.940;3.998;2024-03-23T06:29:48;6.50;99.90
48946;DHT22;34999;50.940;3.998;2024-03-23T06:32:14;6.60;99.90
48946;DHT22;34999;50.940;3.998;2024-03-23T06:34:42;6.70;99.90
48946;DHT22;34999;50.940;3.998;2024-03-23T06:37:08;6.60;99.90
48946;DHT22;34999;50.940;3.998;2024-03-23T06:39:37;6.50;99.90
48946;DHT22;34999;50.940;3.998;2024-03-23T06:42:04;6.40;99.90
48946;DHT22;34999;50.940;3.998;2024-03-23T06:44:31;6.40;99.90
48946;DHT22;34999;50.940;3.998;2024-03-23T06:47:01;6.30;99.90
48946;DHT22;34999;50.940;3.998;2024-03-23T06:49:30;6.10;99.90
48946;DHT22;34999;50.940;3.998;2024-03-23T06:51:58;6.10;99.90
48946;DHT22;34999;50.940;3.998;2024-03-23T06:54:26;6.00;99.90
48946;DHT22;34999;50.940;3.998;2024-03-23T06:56:54;5.90;99.90
48946;DHT22;34999;50.940;3.998;2024-03-23T06:59:23;5.80;99.90
48946;DHT22;34999;50.940;3.998;2024-03-23T07:01:50;5.70;99.90
48946;DHT22;34999;50.940;3.998;2024-03-23T07:04:18;5.70;99.90
48946;DHT22;34999;50.940;3.998;2024-03-23T07:06:45;5.70;99.90
48946;DHT22;34999;50.940;3.998;2024-03-23T07:09:12;6.00;99.90
48946;DHT22;34999;50.940;3.998;2024-03-23T07:11:39;6.60;99.90
48946;DHT22;34999;50.940;3.998;2024-03-23T07:14:07;7.30;99.90
48946;DHT22;34999;50.940;3.998;2024-03-23T07:16:34;7.60;99.90
48946;DHT22;34999;50.940;3.998;2024-03-23T07:19:01;7.50;99.90
48946;DHT22;34999;50.940;3.998;2024-03-23T07:21:29;7.70;99.90
48946;DHT22;34999;50.940;3.998;2024-03-23T07:23:55;8.30;99.90
48946;DHT22;34999;50.940;3.998;2024-03-23T07:26:22;8.50;99.90
48946;DHT22;34999;50.940;3.998;2024-03-23T07:28:49;8.40;99.90
48946;DHT22;34999;50.940;3.998;2024-03-23T07:31:18;8.70;99.90
48946;DHT22;34999;50.940;3.998;2024-03-23T07:33:45;9.30;99.90
48946;DHT22;34999;50.940;3.998;2024-03-23T07:36:13;9.80;99.90
48946;DHT22;34999;50.940;3.998;2024-03-23T07:38:40;10.20;99.90
48946;DHT22;34999;50.940;3.998;2024-03-23T07:41:09;10.60;99.90
48946;DHT22;34999;50.940;3.998;2024-03-23T07:43:36;10.30;93.80
48946;DHT22;34999;50.940;3.998;2024-03-23T07:46:04;10.00;99.50
48946;DHT22;34999;50.940;3.998;2024-03-23T07:48:32;9.70;99.90
48946;DHT22;34999;50.940;3.998;2024-03-23T07:51:00;10.10;99.90
48946;DHT22;34999;50.940;3.998;2024-03-23T07:53:27;10.40;99.90
48946;DHT22;34999;50.940;3.998;2024-03-23T07:55:55;10.50;96.00
48946;DHT22;34999;50.940;3.998;2024-03-23T07:58:22;10.70;58.60
48946;DHT22;34999;50.940;3.998;2024-03-23T08:00:50;11.10;93.50
48946;DHT22;34999;50.940;3.998;2024-03-23T08:03:16;11.80;70.80
48946;DHT22;34999;50.940;3.998;2024-03-23T08:05:45;11.80;21.00
48946;DHT22;34999;50.940;3.998;2024-03-23T08:08:11;12.00;37.50
48946;DHT22;34999;50.940;3.998;2024-03-23T08:10:47;12.20;11.90
48946;DHT22;34999;50.940;3.998;2024-03-23T08:13:15;12.50;46.40
48946;DHT22;34999;50.940;3.998;2024-03-23T08:15:42;12.90;77.20
48946;DHT22;34999;50.940;3.998;2024-03-23T08:18:11;12.70;19.30
48946;DHT22;34999;50.940;3.998;2024-03-23T08:20:38;12.80;99.90
48946;DHT22;34999;50.940;3.998;2024-03-23T08:23:15;12.60;99.90
48946;DHT22;34999;50.940;3.998;2024-03-23T08:25:42;12.70;99.90
48946;DHT22;34999;50.940;3.998;2024-03-23T08:28:13;12.20;99.90
48946;DHT22;34999;50.940;3.998;2024-03-23T08:30:45;12.20;99.90
48946;DHT22;34999;50.940;3.998;2024-03-23T08:33:18;12.50;99.90
48946;DHT22;34999;50.940;3.998;2024-03-23T08:35:54;12.50;99.90
48946;DHT22;34999;50.940;3.998;2024-03-23T08:38:24;12.80;99.90
48946;DHT22;34999;50.940;3.998;2024-03-23T08:40:56;13.10;99.90
48946;DHT22;34999;50.940;3.998;2024-03-23T08:43:24;13.30;99.90
48946;DHT22;34999;50.940;3.998;2024-03-23T08:45:51;13.50;99.90
48946;DHT22;34999;50.940;3.998;2024-03-23T08:48:19;12.90;99.90
48946;DHT22;34999;50.940;3.998;2024-03-23T08:50:46;12.60;99.90
48946;DHT22;34999;50.940;3.998;2024-03-23T08:53:14;12.10;99.90
48946;DHT22;34999;50.940;3.998;2024-03-23T08:55:42;12.00;99.90
48946;DHT22;34999;50.940;3.998;2024-03-23T08:58:12;11.80;99.90
48946;DHT22;34999;50.940;3.998;2024-03-23T09:00:39;12.00;99.90
48946;DHT22;34999;50.940;3.998;2024-03-23T09:03:12;11.80;99.90
48946;DHT22;34999;50.940;3.998;2024-03-23T09:05:39;11.30;99.90
48946;DHT22;34999;50.940;3.998;2024-03-23T09:08:09;11.00;99.90
48946;DHT22;34999;50.940;3.998;2024-03-23T09:10:38;10.80;99.90
48946;DHT22;34999;50.940;3.998;2024-03-23T09:13:08;10.90;99.90
48946;DHT22;34999;50.940;3.998;2024-03-23T09:15:35;11.40;99.90
48946;DHT22;34999;50.940;3.998;2024-03-23T09:18:03;11.70;99.90
48946;DHT22;34999;50.940;3.998;2024-03-23T09:20:33;11.80;99.90
48946;DHT22;34999;50.940;3.998;2024-03-23T09:23:00;11.80;99.90
48946;DHT22;34999;50.940;3.998;2024-03-23T09:25:27;12.10;99.90
48946;DHT22;34999;50.940;3.998;2024-03-23T09:27:54;12.30;99.90
48946;DHT22;34999;50.940;3.998;2024-03-23T09:30:22;13.10;99.90
48946;DHT22;34999;50.940;3.998;2024-03-23T09:32:49;13.20;99.90
48946;DHT22;34999;50.940;3.998;2024-03-23T09:35:16;12.90;99.90
48946;DHT22;34999;50.940;3.998;2024-03-23T09:37:45;12.60;99.90
48946;DHT22;34999;50.940;3.998;2024-03-23T09:40:11;12.40;99.90
48946;DHT22;34999;50.940;3.998;2024-03-23T09:42:40;12.70;99.90
48946;DHT22;34999;50.940;3.998;2024-03-23T09:45:17;12.60;99.90
48946;DHT22;34999;50.940;3.998;2024-03-23T09:47:46;11.80;99.90
48946;DHT22;34999;50.940;3.998;2024-03-23T09:50:13;11.20;99.90
48946;DHT22;34999;50.940;3.998;2024-03-23T09:52:40;11.50;99.90
48946;DHT22;34999;50.940;3.998;2024-03-23T09:55:08;12.20;99.90
48946;DHT22;34999;50.940;3.998;2024-03-23T09:57:36;12.70;99.90
48946;DHT22;34999;50.940;3.998;2024-03-23T10:00:02;12.70;99.90
48946;DHT22;34999;50.940;3.998;2024-03-23T10:02:33;12.60;99.90
48946;DHT22;34999;50.940;3.998;2024-03-23T10:05:01;11.90;99.90
48946;DHT22;34999;50.940;3.998;2024-03-23T10:07:28;12.20;99.90
48946;DHT22;34999;50.940;3.998;2024-03-23T10:09:55;13.60;99.90
48946;DHT22;34999;50.940;3.998;2024-03-23T10:12:24;14.10;99.90
48946;DHT22;34999;50.940;3.998;2024-03-23T10:14:50;14.70;99.90
48946;DHT22;34999;50.940;3.998;2024-03-23T10:17:20;15.90;99.90
48946;DHT22;34999;50.940;3.998;2024-03-23T10:19:51;15.60;99.90
48946;DHT22;34999;50.940;3.998;2024-03-23T10:22:20;15.60;99.90
48946;DHT22;34999;50.940;3.998;2024-03-23T10:24:47;15.90;99.90
48946;DHT22;34999;50.940;3.998;2024-03-23T10:27:16;17.30;99.90
48946;DHT22;34999;50.940;3.998;2024-03-23T10:29:43;18.30;99.90
48946;DHT22;34999;50.940;3.998;2024-03-23T10:32:12;17.90;96.40
48946;DHT22;34999;50.940;3.998;2024-03-23T10:34:39;17.40;99.60
48946;DHT22;34999;50.940;3.998;2024-03-23T10:37:07;16.90;98.70
48946;DHT22;34999;50.940;3.998;2024-03-23T10:39:36;16.20;99.90
48946;DHT22;34999;50.940;3.998;2024-03-23T10:42:05;15.00;99.90
48946;DHT22;34999;50.940;3.998;2024-03-23T10:44:32;14.20;99.90
48946;DHT22;34999;50.940;3.998;2024-03-23T10:47:00;14.10;99.90
48946;DHT22;34999;50.940;3.998;2024-03-23T10:49:28;14.20;99.90
48946;DHT22;34999;50.940;3.998;2024-03-23T10:52:00;14.30;99.90
48946;DHT22;34999;50.940;3.998;2024-03-23T10:54:27;14.00;99.90
48946;DHT22;34999;50.940;3.998;2024-03-23T10:57:01;13.30;99.90
48946;DHT22;34999;50.940;3.998;2024-03-23T10:59:31;13.10;99.90
48946;DHT22;34999;50.940;3.998;2024-03-23T11:01:59;13.00;99.90
48946;DHT22;34999;50.940;3.998;2024-03-23T11:04:30;13.30;99.90
48946;DHT22;34999;50.940;3.998;2024-03-23T11:06:58;13.60;99.90
48946;DHT22;34999;50.940;3.998;2024-03-23T11:09:43;13.80;99.90
48946;DHT22;34999;50.940;3.998;2024-03-23T11:12:28;14.30;99.90
48946;DHT22;34999;50.940;3.998;2024-03-23T11:15:00;14.30;99.90
48946;DHT22;34999;50.940;3.998;2024-03-23T11:17:28;14.60;99.90
48946;DHT22;34999;50.940;3.998;2024-03-23T11:19:56;15.50;99.90
48946;DHT22;34999;50.940;3.998;2024-03-23T11:22:43;16.00;99.90
48946;DHT22;34999;50.940;3.998;2024-03-23T11:25:17;15.20;95.30
48946;DHT22;34999;50.940;3.998;2024-03-23T11:27:49;15.00;99.70
48946;DHT22;34999;50.940;3.998;2024-03-23T11:30:17;14.50;99.40
48946;DHT22;34999;50.940;3.998;2024-03-23T11:32:45;14.40;99.90
48946;DHT22;34999;50.940;3.998;2024-03-23T11:35:25;15.20;99.90
48946;DHT22;34999;50.940;3.998;2024-03-23T11:38:04;15.70;98.80
48946;DHT22;34999;50.940;3.998;2024-03-23T11:40:30;15.10;99.90
48946;DHT22;34999;50.940;3.998;2024-03-23T11:43:00;14.60;99.90
48946;DHT22;34999;50.940;3.998;2024-03-23T11:45:27;15.00;99.90
48946;DHT22;34999;50.940;3.998;2024-03-23T11:48:06;15.20;99.90
48946;DHT22;34999;50.940;3.998;2024-03-23T11:50:33;14.90;99.90
48946;DHT22;34999;50.940;3.998;2024-03-23T11:53:15;14.90;99.90
48946;DHT22;34999;50.940;3.998;2024-03-23T11:55:45;15.10;99.90
48946;DHT22;34999;50.940;3.998;2024-03-23T11:58:13;14.80;99.50
48946;DHT22;34999;50.940;3.998;2024-03-23T12:00:41;14.50;99.90
48946;DHT22;34999;50.940;3.998;2024-03-23T12:03:08;13.80;99.90
48946;DHT22;34999;50.940;3.998;2024-03-23T12:05:37;14.70;99.90
48946;DHT22;34999;50.940;3.998;2024-03-23T12:08:21;15.10;99.90
48946;DHT22;34999;50.940;3.998;2024-03-23T12:10:51;15.90;99.20
48946;DHT22;34999;50.940;3.998;2024-03-23T12:13:20;16.20;98.80
48946;DHT22;34999;50.940;3.998;2024-03-23T12:15:49;16.60;97.20
48946;DHT22;34999;50.940;3.998;2024-03-23T12:18:17;16.40;97.60
48946;DHT22;34999;50.940;3.998;2024-03-23T12:20:44;15.80;97.00
48946;DHT22;34999;50.940;3.998;2024-03-23T12:23:11;15.50;97.30
48946;DHT22;34999;50.940;3.998;2024-03-23T12:25:39;14.80;99.90
48946;DHT22;34999;50.940;3.998;2024-03-23T12:28:06;14.10;99.90
48946;DHT22;34999;50.940;3.998;2024-03-23T12:30:39;14.70;99.90
48946;DHT22;34999;50.940;3.998;2024-03-23T12:33:05;15.40;99.90
48946;DHT22;34999;50.940;3.998;2024-03-23T12:35:33;15.10;99.90
48946;DHT22;34999;50.940;3.998;2024-03-23T12:38:00;14.20;99.90
48946;DHT22;34999;50.940;3.998;2024-03-23T12:40:27;13.40;99.90
48946;DHT22;34999;50.940;3.998;2024-03-23T12:42:54;12.80;99.90
48946;DHT22;34999;50.940;3.998;2024-03-23T12:45:22;12.10;99.90
48946;DHT22;34999;50.940;3.998;2024-03-23T12:47:49;11.40;99.90
48946;DHT22;34999;50.940;3.998;2024-03-23T12:50:18;11.00;99.90
48946;DHT22;34999;50.940;3.998;2024-03-23T12:52:44;10.80;99.90
48946;DHT22;34999;50.940;3.998;2024-03-23T12:55:12;10.70;99.90
48946;DHT22;34999;50.940;3.998;2024-03-23T12:57:38;10.70;99.90
48946;DHT22;34999;50.940;3.998;2024-03-23T13:00:07;11.10;99.90
48946;DHT22;34999;50.940;3.998;2024-03-23T13:02:40;12.20;99.90
48946;DHT22;34999;50.940;3.998;2024-03-23T13:05:12;13.30;99.90
48946;DHT22;34999;50.940;3.998;2024-03-23T13:07:39;13.60;99.90
48946;DHT22;34999;50.940;3.998;2024-03-23T13:10:07;13.60;99.90
48946;DHT22;34999;50.940;3.998;2024-03-23T13:12:37;13.40;99.90
48946;DHT22;34999;50.940;3.998;2024-03-23T13:15:06;13.10;99.90
48946;DHT22;34999;50.940;3.998;2024-03-23T13:17:32;13.10;99.90
48946;DHT22;34999;50.940;3.998;2024-03-23T13:19:59;13.40;99.90
48946;DHT22;34999;50.940;3.998;2024-03-23T13:22:27;13.20;99.90
48946;DHT22;34999;50.940;3.998;2024-03-23T13:24:56;12.90;99.90
48946;DHT22;34999;50.940;3.998;2024-03-23T13:27:22;12.50;99.90
48946;DHT22;34999;50.940;3.998;2024-03-23T13:29:50;12.10;99.90
48946;DHT22;34999;50.940;3.998;2024-03-23T13:32:16;11.60;99.90
48946;DHT22;34999;50.940;3.998;2024-03-23T13:34:44;11.00;99.90
48946;DHT22;34999;50.940;3.998;2024-03-23T13:37:10;10.60;99.90
48946;DHT22;34999;50.940;3.998;2024-03-23T13:39:39;10.40;99.90
48946;DHT22;34999;50.940;3.998;2024-03-23T13:42:08;10.40;99.90
48946;DHT22;34999;50.940;3.998;2024-03-23T13:44:35;10.50;99.90
48946;DHT22;34999;50.940;3.998;2024-03-23T13:47:02;10.50;99.90
48946;DHT22;34999;50.940;3.998;2024-03-23T13:49:34;10.50;99.90
48946;DHT22;34999;50.940;3.998;2024-03-23T13:52:01;10.60;99.90
48946;DHT22;34999;50.940;3.998;2024-03-23T13:54:32;11.00;99.90
48946;DHT22;34999;50.940;3.998;2024-03-23T13:56:59;11.40;99.90
48946;DHT22;34999;50.940;3.998;2024-03-23T13:59:28;11.70;99.90
48946;DHT22;34999;50.940;3.998;2024-03-23T14:01:54;12.00;99.90
48946;DHT22;34999;50.940;3.998;2024-03-23T14:04:22;12.00;99.90
48946;DHT22;34999;50.940;3.998;2024-03-23T14:06:49;11.70;99.90
48946;DHT22;34999;50.940;3.998;2024-03-23T14:09:17;11.80;99.90
48946;DHT22;34999;50.940;3.998;2024-03-23T14:11:46;11.90;99.90
48946;DHT22;34999;50.940;3.998;2024-03-23T14:14:15;11.80;99.90
48946;DHT22;34999;50.940;3.998;2024-03-23T14:16:42;11.30;99.90
48946;DHT22;34999;50.940;3.998;2024-03-23T14:19:10;10.90;99.90
48946;DHT22;34999;50.940;3.998;2024-03-23T14:21:36;10.80;99.90
48946;DHT22;34999;50.940;3.998;2024-03-23T14:24:04;10.80;99.90
48946;DHT22;34999;50.940;3.998;2024-03-23T14:26:31;11.20;99.90
48946;DHT22;34999;50.940;3.998;2024-03-23T14:29:02;11.60;99.90
48946;DHT22;34999;50.940;3.998;2024-03-23T14:31:31;12.00;99.90
48946;DHT22;34999;50.940;3.998;2024-03-23T14:33:58;12.20;99.90
48946;DHT22;34999;50.940;3.998;2024-03-23T14:36:26;12.00;99.90
48946;DHT22;34999;50.940;3.998;2024-03-23T14:38:53;12.10;99.90
48946;DHT22;34999;50.940;3.998;2024-03-23T14:41:20;12.20;99.90
48946;DHT22;34999;50.940;3.998;2024-03-23T14:43:47;12.40;99.90
48946;DHT22;34999;50.940;3.998;2024-03-23T14:46:16;12.50;99.90
48946;DHT22;34999;50.940;3.998;2024-03-23T14:48:45;12.50;99.90
48946;DHT22;34999;50.940;3.998;2024-03-23T14:51:12;12.50;99.90
48946;DHT22;34999;50.940;3.998;2024-03-23T14:53:40;12.70;99.90
48946;DHT22;34999;50.940;3.998;2024-03-23T14:56:07;13.00;99.90
48946;DHT22;34999;50.940;3.998;2024-03-23T14:58:36;13.20;99.90
48946;DHT22;34999;50.940;3.998;2024-03-23T15:01:02;13.10;99.90
48946;DHT22;34999;50.940;3.998;2024-03-23T15:03:30;12.80;99.90
48946;DHT22;34999;50.940;3.998;2024-03-23T15:05:59;12.70;99.90
48946;DHT22;34999;50.940;3.998;2024-03-23T15:08:28;12.60;99.90
48946;DHT22;34999;50.940;3.998;2024-03-23T15:10:55;12.80;99.90
48946;DHT22;34999;50.940;3.998;2024-03-23T15:13:26;13.00;99.90
48946;DHT22;34999;50.940;3.998;2024-03-23T15:15:53;13.20;99.90
48946;DHT22;34999;50.940;3.998;2024-03-23T15:18:19;13.10;99.90
48946;DHT22;34999;50.940;3.998;2024-03-23T15:20:52;12.80;99.90
48946;DHT22;34999;50.940;3.998;2024-03-23T15:23:20;12.50;99.90
48946;DHT22;34999;50.940;3.998;2024-03-23T15:25:54;12.30;99.90
48946;DHT22;34999;50.940;3.998;2024-03-23T15:28:21;12.30;99.90
48946;DHT22;34999;50.940;3.998;2024-03-23T15:30:48;12.40;99.90
48946;DHT22;34999;50.940;3.998;2024-03-23T15:33:14;12.50;99.90
48946;DHT22;34999;50.940;3.998;2024-03-23T15:35:42;12.50;99.90
48946;DHT22;34999;50.940;3.998;2024-03-23T15:38:08;12.50;99.90
48946;DHT22;34999;50.940;3.998;2024-03-23T15:40:37;12.50;99.90
48946;DHT22;34999;50.940;3.998;2024-03-23T15:43:04;12.60;99.90
48946;DHT22;34999;50.940;3.998;2024-03-23T15:45:31;12.50;99.90
48946;DHT22;34999;50.940;3.998;2024-03-23T15:47:58;12.50;99.90
48946;DHT22;34999;50.940;3.998;2024-03-23T15:50:25;12.40;99.90
48946;DHT22;34999;50.940;3.998;2024-03-23T15:52:52;12.40;99.90
48946;DHT22;34999;50.940;3.998;2024-03-23T15:55:20;12.20;99.90
48946;DHT22;34999;50.940;3.998;2024-03-23T15:57:49;12.00;99.90
48946;DHT22;34999;50.940;3.998;2024-03-23T16:00:17;11.80;99.90
48946;DHT22;34999;50.940;3.998;2024-03-23T16:02:43;11.70;99.90
48946;DHT22;34999;50.940;3.998;2024-03-23T16:05:14;11.60;99.90
48946;DHT22;34999;50.940;3.998;2024-03-23T16:07:40;11.50;99.90
48946;DHT22;34999;50.940;3.998;2024-03-23T16:10:08;11.50;99.90
48946;DHT22;34999;50.940;3.998;2024-03-23T16:12:36;11.40;99.90
48946;DHT22;34999;50.940;3.998;2024-03-23T16:15:05;11.20;99.90
48946;DHT22;34999;50.940;3.998;2024-03-23T16:17:32;11.20;99.90
48946;DHT22;34999;50.940;3.998;2024-03-23T16:20:02;11.10;99.90
48946;DHT22;34999;50.940;3.998;2024-03-23T16:22:29;11.10;99.90
48946;DHT22;34999;50.940;3.998;2024-03-23T16:24:56;11.00;99.90
48946;DHT22;34999;50.940;3.998;2024-03-23T16:27:23;10.90;99.90
48946;DHT22;34999;50.940;3.998;2024-03-23T16:29:50;10.90;99.90
48946;DHT22;34999;50.940;3.998;2024-03-23T16:32:18;10.90;99.90
48946;DHT22;34999;50.940;3.998;2024-03-23T16:34:45;10.90;99.90
48946;DHT22;34999;50.940;3.998;2024-03-23T16:37:11;10.80;99.90